Celebrity Constellation — 9HJB9 — position and weather

sailwx.info

Track history (hours):
 
Tides and Currents Weather Stations Pressure Air Temp Water Temp Dewpoint Dewpoint Depression Visibility Wind Speed Wind Dir Waves Ship Positions

Celebrity Constellation

Last reported at 2020-Aug-09 05:19 UTC. Time now 2020-Aug-09 05:45 UTC.
Position N 37°15' E 023°35'.

Length 294 m; draft 8.3 m.

Type: Passenger vessel. MMSI: 249046000.

Date/timePositionNaut miles runAvg speedWind from/ knotsBaromVisibWave heightAir tempDewpointWater temp
2020-Aug-09 05:19N 37°15' E 023°35'5 2.1
2020-Aug-09 03:00N 37°12' E 023°30'5 2.4 360 / 251004.2 25.025.026.0
2020-Aug-09 01:00N 37°12' E 023°36'5 3.1 330 / 111005.227.0 27.027.024.0
2020-Aug-08 23:29N 37°17' E 023°36'2 1.8
2020-Aug-08 22:14N 37°16' E 023°33'2 0.5
2020-Aug-08 17:30N 37°17' E 023°36'4 1.3
2020-Aug-08 14:30N 37°13' E 023°38'2 3.7
2020-Aug-08 14:00N 37°12' E 023°36'5 4.3 190 / 151007.2 27.027.026.0
2020-Aug-08 12:55N 37°10' E 023°41'4 2.9
2020-Aug-08 11:23N 37°07' E 023°45'2 5.7
2020-Aug-08 10:58N 37°05' E 023°47'9 1.3
2020-Aug-08 04:00N 37°06' E 023°36'8 2.6 020 / 141009.2 26.026.026.0
2020-Aug-08 01:00N 37°12' E 023°30'612.8 110 / 21009.2 28.028.024.4
2020-Aug-08 00:31N 37°16' E 023°35'1 1.2
2020-Aug-07 23:56N 37°16' E 023°34'1 0.3
2020-Aug-07 21:56N 37°16' E 023°34'1 0.5
2020-Aug-07 19:29N 37°17' E 023°34'1 0.4
2020-Aug-07 17:26N 37°16' E 023°35'0 0.1
2020-Aug-07 16:30N 37°17' E 023°36'0 0.1
2020-Aug-07 14:00N 37°17' E 023°35'0 0.2
2020-Aug-07 13:00N 37°17' E 023°35'0 0.4
2020-Aug-07 12:26N 37°17' E 023°35'0 0.2
2020-Aug-07 10:30N 37°18' E 023°35'1 0.2
2020-Aug-07 06:14N 37°18' E 023°37'1 0.4
2020-Aug-07 04:52N 37°17' E 023°37'0 0.8
2020-Aug-07 04:25N 37°17' E 023°38'0 0.8
2020-Aug-07 03:56N 37°17' E 023°38'0 0.9
2020-Aug-07 03:30N 37°17' E 023°38'5 9.9
2020-Aug-07 03:00N 37°12' E 023°36'3 1.5 020 / 91009.2 25.025.025.0
2020-Aug-07 01:00N 37°15' E 023°34'4663.8
2020-Aug-07 01:00N 37°12' E 023°30'2 1.4 050 / 181009.2 28.028.024.6
2020-Aug-06 23:21N 37°13' E 023°33'3 1.4
2020-Aug-06 21:16N 37°15' E 023°35'1 0.5
2020-Aug-06 19:53N 37°16' E 023°35'0 0.1
2020-Aug-06 16:00N 37°16' E 023°35'6 2.8
2020-Aug-06 14:00N 37°12' E 023°30'612.7 120 / 101008.2 26.026.025.0
2020-Aug-06 13:30N 37°17' E 023°35'2 0.3
2020-Aug-06 05:47N 37°15' E 023°34'0 1.3
2020-Aug-06 05:30N 37°15' E 023°34'1 0.5
2020-Aug-06 04:30N 37°15' E 023°35'0 0.4
2020-Aug-06 03:59N 37°15' E 023°35'5 4.8
2020-Aug-06 03:00N 37°12' E 023°30'4 3.6 030 / 141007.2 26.026.025.0
2020-Aug-06 02:00N 37°14' E 023°34'0 0.4
2020-Aug-06 01:30N 37°14' E 023°33'2 0.6
2020-Aug-05 22:30N 37°15' E 023°36'1 0.4
2020-Aug-05 19:53N 37°16' E 023°36'1 1.8
2020-Aug-05 19:12N 37°17' E 023°35'0 0.3
2020-Aug-05 17:30N 37°17' E 023°36'0 0.1
2020-Aug-05 14:00N 37°17' E 023°35'6897.5
2020-Aug-05 14:00N 37°12' E 023°30'6 6.3 220 / 61008.2 27.027.025.0
2020-Aug-05 13:00N 37°16' E 023°35'6496.0
2020-Aug-05 13:00N 37°12' E 023°30'611.8 190 / 71008.2 34.034.026.0
2020-Aug-05 12:30N 37°16' E 023°35'1 0.3
2020-Aug-05 09:29N 37°16' E 023°34'1 0.3
2020-Aug-05 06:30N 37°15' E 023°33'1 0.5
2020-Aug-05 04:30N 37°15' E 023°35'5 3.2
2020-Aug-05 03:00N 37°12' E 023°30'5 2.0 030 / 41007.2 28.028.024.0
2020-Aug-05 00:18N 37°15' E 023°36'1 0.3
2020-Aug-04 22:07N 37°14' E 023°36'0 0.4
2020-Aug-04 21:00N 37°14' E 023°36'0 0.4
2020-Aug-04 19:59N 37°15' E 023°36'1 0.4
2020-Aug-04 17:00N 37°16' E 023°35'6 2.9
2020-Aug-04 15:00N 37°12' E 023°30'0 0.0 210 / 51008.2 26.026.025.0
2020-Aug-04 13:00N 37°12' E 023°30'5 2.5 180 / 71009.2 30.030.025.0
2020-Aug-04 11:00N 37°16' E 023°34'1 0.8
2020-Aug-04 09:30N 37°16' E 023°35'1 1.1
2020-Aug-04 09:00N 37°17' E 023°36'0 0.7
2020-Aug-04 08:30N 37°17' E 023°36'3 0.7
2020-Aug-04 04:58N 37°15' E 023°34'1 0.6
2020-Aug-04 04:00N 37°15' E 023°35'0 0.4
2020-Aug-04 03:00N 37°16' E 023°35'5352.6
2020-Aug-04 03:00N 37°12' E 023°30'6 1.4 300 / 61009.2 25.025.024.0
2020-Aug-03 22:24N 37°17' E 023°35'1 0.1
2020-Aug-03 17:27N 37°16' E 023°34'1 1.0
2020-Aug-03 16:30N 37°17' E 023°35'2 1.9
2020-Aug-03 15:30N 37°16' E 023°37'4 2.8
2020-Aug-03 14:00N 37°12' E 023°36'0 0.0 050 / 161009.2 28.028.026.0
2020-Aug-03 13:00N 37°12' E 023°36'4454.3 030 / 121010.2 31.031.026.0
2020-Aug-03 12:59N 37°16' E 023°36'2 1.1
2020-Aug-03 10:54N 37°14' E 023°34'1 1.3
2020-Aug-03 09:59N 37°13' E 023°33'1 1.2
2020-Aug-03 09:13N 37°14' E 023°34'0 1.1
2020-Aug-03 08:46N 37°15' E 023°34'2 1.2
2020-Aug-03 07:00N 37°17' E 023°35'0 0.3
2020-Aug-03 05:30N 37°16' E 023°36'2 1.9
2020-Aug-03 04:30N 37°15' E 023°34'1 0.9
2020-Aug-03 03:24N 37°16' E 023°34'512.9
2020-Aug-03 03:00N 37°12' E 023°30'5 1.7 350 / 221009.2 27.027.025.0
2020-Aug-03 00:00N 37°15' E 023°35'0 0.0
2020-Aug-02 17:09N 37°15' E 023°35'1 1.0
2020-Aug-02 16:29N 37°14' E 023°35'5 3.1
2020-Aug-02 15:00N 37°12' E 023°30'6 3.7 020 / 141008.2 28.028.026.0
2020-Aug-02 13:30N 37°16' E 023°35'1 1.7
2020-Aug-02 13:00N 37°16' E 023°36'6477.3
2020-Aug-02 13:00N 37°12' E 023°30'712.9 030 / 101008.2 32.032.025.5
2020-Aug-02 12:26N 37°17' E 023°36'1 0.7
2020-Aug-02 10:26N 37°16' E 023°36'0 1.1
2020-Aug-02 10:00N 37°15' E 023°35'2 0.5
2020-Aug-02 06:30N 37°17' E 023°36'1 0.9
2020-Aug-02 05:00N 37°16' E 023°37'0 0.7
2020-Aug-02 04:30N 37°16' E 023°37'0 0.7
2020-Aug-02 04:00N 37°15' E 023°36'3693.7
2020-Aug-02 04:00N 37°12' E 023°36'2 2.5 350 / 241006.2 27.027.026.0
2020-Aug-02 03:00N 37°14' E 023°36'1 1.4
2020-Aug-02 02:00N 37°14' E 023°34'1 1.3
2020-Aug-02 00:55N 37°15' E 023°35'3 1.2
2020-Aug-01 22:30N 37°17' E 023°36'1 0.1
2020-Aug-01 15:59N 37°16' E 023°36'2 1.0
2020-Aug-01 14:00N 37°15' E 023°34'5 4.7
2020-Aug-01 13:00N 37°12' E 023°30'3 2.2 100 / 101007.2 38.038.025.5
2020-Aug-01 11:30N 37°14' E 023°33'2 0.9
2020-Aug-01 09:29N 37°15' E 023°35'3 0.7
2020-Aug-01 05:30N 37°14' E 023°38'11 4.1
2020-Aug-01 02:49N 37°08' E 023°49'2 6.9
2020-Aug-01 02:30N 37°08' E 023°52'19 2.2
2020-Jul-31 17:59N 37°27' E 023°49'7 2.9
2020-Jul-31 15:29N 37°33' E 023°46'12 3.6
2020-Jul-31 12:00N 37°45' E 023°39'7 3.7
2020-Jul-31 10:00N 37°52' E 023°36'5 1.4
2020-Jul-31 06:28N 37°56' E 023°38'0 0.0
2020-Jul-31 05:58N 37°56' E 023°38'0 0.0
2020-Jul-31 04:58N 37°56' E 023°38'0 0.0
2020-Jul-31 03:58N 37°56' E 023°38'0 0.0
2020-Jul-31 00:55N 37°56' E 023°38'0 0.0
2020-Jul-31 00:28N 37°56' E 023°38'0 0.0
2020-Jul-30 22:28N 37°56' E 023°38'0 0.0
2020-Jul-30 21:28N 37°56' E 023°38'0 0.0
2020-Jul-30 20:28N 37°56' E 023°38'0 0.0
2020-Jul-30 19:28N 37°56' E 023°38'0 0.0
2020-Jul-30 13:28N 37°56' E 023°38'0 0.0
2020-Jul-30 10:25N 37°56' E 023°38'0 0.0
2020-Jul-30 08:58N 37°56' E 023°38'0 0.0
2020-Jul-30 08:28N 37°56' E 023°38'0 0.0
2020-Jul-30 05:58N 37°56' E 023°38'  
Track history (hours):
 
Tides and Currents Weather Stations Pressure Air Temp Water Temp Dewpoint Dewpoint Depression Visibility Wind Speed Wind Dir Waves Ship Positions

Celebrity Constellation

Last reported at 2020-Aug-09 05:19 UTC. Time now 2020-Aug-09 05:45 UTC.
Position N 37°15' E 023°35'.

Length 294 m; draft 8.3 m.

Type: Passenger vessel. MMSI: 249046000.

Date/timePositionNaut miles runAvg speedWind from/ knotsBaromVisibWave heightAir tempDewpointWater temp
2020-Aug-09 05:19N 37°15' E 023°35'5 2.1
2020-Aug-09 03:00N 37°12' E 023°30'5 2.4 360 / 251004.2 25.025.026.0
2020-Aug-09 01:00N 37°12' E 023°36'5 3.1 330 / 111005.227.0 27.027.024.0
2020-Aug-08 23:29N 37°17' E 023°36'2 1.8
2020-Aug-08 22:14N 37°16' E 023°33'2 0.5
2020-Aug-08 17:30N 37°17' E 023°36'4 1.3
2020-Aug-08 14:30N 37°13' E 023°38'2 3.7
2020-Aug-08 14:00N 37°12' E 023°36'5 4.3 190 / 151007.2 27.027.026.0
2020-Aug-08 12:55N 37°10' E 023°41'4 2.9
2020-Aug-08 11:23N 37°07' E 023°45'2 5.7
2020-Aug-08 10:58N 37°05' E 023°47'9 1.3
2020-Aug-08 04:00N 37°06' E 023°36'8 2.6 020 / 141009.2 26.026.026.0
2020-Aug-08 01:00N 37°12' E 023°30'612.8 110 / 21009.2 28.028.024.4
2020-Aug-08 00:31N 37°16' E 023°35'1 1.2
2020-Aug-07 23:56N 37°16' E 023°34'1 0.3
2020-Aug-07 21:56N 37°16' E 023°34'1 0.5
2020-Aug-07 19:29N 37°17' E 023°34'1 0.4
2020-Aug-07 17:26N 37°16' E 023°35'0 0.1
2020-Aug-07 16:30N 37°17' E 023°36'0 0.1
2020-Aug-07 14:00N 37°17' E 023°35'0 0.2
2020-Aug-07 13:00N 37°17' E 023°35'0 0.4
2020-Aug-07 12:26N 37°17' E 023°35'0 0.2
2020-Aug-07 10:30N 37°18' E 023°35'1 0.2
2020-Aug-07 06:14N 37°18' E 023°37'1 0.4
2020-Aug-07 04:52N 37°17' E 023°37'0 0.8
2020-Aug-07 04:25N 37°17' E 023°38'0 0.8
2020-Aug-07 03:56N 37°17' E 023°38'0 0.9
2020-Aug-07 03:30N 37°17' E 023°38'5 9.9
2020-Aug-07 03:00N 37°12' E 023°36'3 1.5 020 / 91009.2 25.025.025.0
2020-Aug-07 01:00N 37°15' E 023°34'4663.8
2020-Aug-07 01:00N 37°12' E 023°30'2 1.4 050 / 181009.2 28.028.024.6
2020-Aug-06 23:21N 37°13' E 023°33'3 1.4
2020-Aug-06 21:16N 37°15' E 023°35'1 0.5
2020-Aug-06 19:53N 37°16' E 023°35'0 0.1
2020-Aug-06 16:00N 37°16' E 023°35'6 2.8
2020-Aug-06 14:00N 37°12' E 023°30'612.7 120 / 101008.2 26.026.025.0
2020-Aug-06 13:30N 37°17' E 023°35'2 0.3
2020-Aug-06 05:47N 37°15' E 023°34'0 1.3
2020-Aug-06 05:30N 37°15' E 023°34'1 0.5
2020-Aug-06 04:30N 37°15' E 023°35'0 0.4
2020-Aug-06 03:59N 37°15' E 023°35'5 4.8
2020-Aug-06 03:00N 37°12' E 023°30'4 3.6 030 / 141007.2 26.026.025.0
2020-Aug-06 02:00N 37°14' E 023°34'0 0.4
2020-Aug-06 01:30N 37°14' E 023°33'2 0.6
2020-Aug-05 22:30N 37°15' E 023°36'1 0.4
2020-Aug-05 19:53N 37°16' E 023°36'1 1.8
2020-Aug-05 19:12N 37°17' E 023°35'0 0.3
2020-Aug-05 17:30N 37°17' E 023°36'0 0.1
2020-Aug-05 14:00N 37°17' E 023°35'6897.5
2020-Aug-05 14:00N 37°12' E 023°30'6 6.3 220 / 61008.2 27.027.025.0
2020-Aug-05 13:00N 37°16' E 023°35'6496.0
2020-Aug-05 13:00N 37°12' E 023°30'611.8 190 / 71008.2 34.034.026.0
2020-Aug-05 12:30N 37°16' E 023°35'1 0.3
2020-Aug-05 09:29N 37°16' E 023°34'1 0.3
2020-Aug-05 06:30N 37°15' E 023°33'1 0.5
2020-Aug-05 04:30N 37°15' E 023°35'5 3.2
2020-Aug-05 03:00N 37°12' E 023°30'5 2.0 030 / 41007.2 28.028.024.0
2020-Aug-05 00:18N 37°15' E 023°36'1 0.3
2020-Aug-04 22:07N 37°14' E 023°36'0 0.4
2020-Aug-04 21:00N 37°14' E 023°36'0 0.4
2020-Aug-04 19:59N 37°15' E 023°36'1 0.4
2020-Aug-04 17:00N 37°16' E 023°35'6 2.9
2020-Aug-04 15:00N 37°12' E 023°30'0 0.0 210 / 51008.2 26.026.025.0
2020-Aug-04 13:00N 37°12' E 023°30'5 2.5 180 / 71009.2 30.030.025.0
2020-Aug-04 11:00N 37°16' E 023°34'1 0.8
2020-Aug-04 09:30N 37°16' E 023°35'1 1.1
2020-Aug-04 09:00N 37°17' E 023°36'0 0.7
2020-Aug-04 08:30N 37°17' E 023°36'3 0.7
2020-Aug-04 04:58N 37°15' E 023°34'1 0.6
2020-Aug-04 04:00N 37°15' E 023°35'0 0.4
2020-Aug-04 03:00N 37°16' E 023°35'5352.6
2020-Aug-04 03:00N 37°12' E 023°30'6 1.4 300 / 61009.2 25.025.024.0
2020-Aug-03 22:24N 37°17' E 023°35'1 0.1
2020-Aug-03 17:27N 37°16' E 023°34'1 1.0
2020-Aug-03 16:30N 37°17' E 023°35'2 1.9
2020-Aug-03 15:30N 37°16' E 023°37'4 2.8
2020-Aug-03 14:00N 37°12' E 023°36'0 0.0 050 / 161009.2 28.028.026.0
2020-Aug-03 13:00N 37°12' E 023°36'4454.3 030 / 121010.2 31.031.026.0
2020-Aug-03 12:59N 37°16' E 023°36'2 1.1
2020-Aug-03 10:54N 37°14' E 023°34'1 1.3
2020-Aug-03 09:59N 37°13' E 023°33'1 1.2
2020-Aug-03 09:13N 37°14' E 023°34'0 1.1
2020-Aug-03 08:46N 37°15' E 023°34'2 1.2
2020-Aug-03 07:00N 37°17' E 023°35'0 0.3
2020-Aug-03 05:30N 37°16' E 023°36'2 1.9
2020-Aug-03 04:30N 37°15' E 023°34'1 0.9
2020-Aug-03 03:24N 37°16' E 023°34'512.9
2020-Aug-03 03:00N 37°12' E 023°30'5 1.7 350 / 221009.2 27.027.025.0
2020-Aug-03 00:00N 37°15' E 023°35'0 0.0
2020-Aug-02 17:09N 37°15' E 023°35'1 1.0
2020-Aug-02 16:29N 37°14' E 023°35'5 3.1
2020-Aug-02 15:00N 37°12' E 023°30'6 3.7 020 / 141008.2 28.028.026.0
2020-Aug-02 13:30N 37°16' E 023°35'1 1.7
2020-Aug-02 13:00N 37°16' E 023°36'6477.3
2020-Aug-02 13:00N 37°12' E 023°30'712.9 030 / 101008.2 32.032.025.5
2020-Aug-02 12:26N 37°17' E 023°36'1 0.7
2020-Aug-02 10:26N 37°16' E 023°36'0 1.1
2020-Aug-02 10:00N 37°15' E 023°35'2 0.5
2020-Aug-02 06:30N 37°17' E 023°36'1 0.9
2020-Aug-02 05:00N 37°16' E 023°37'0 0.7
2020-Aug-02 04:30N 37°16' E 023°37'0 0.7
2020-Aug-02 04:00N 37°15' E 023°36'3693.7
2020-Aug-02 04:00N 37°12' E 023°36'2 2.5 350 / 241006.2 27.027.026.0
2020-Aug-02 03:00N 37°14' E 023°36'1 1.4
2020-Aug-02 02:00N 37°14' E 023°34'1 1.3
2020-Aug-02 00:55N 37°15' E 023°35'3 1.2
2020-Aug-01 22:30N 37°17' E 023°36'1 0.1
2020-Aug-01 15:59N 37°16' E 023°36'2 1.0
2020-Aug-01 14:00N 37°15' E 023°34'5 4.7
2020-Aug-01 13:00N 37°12' E 023°30'3 2.2 100 / 101007.2 38.038.025.5
2020-Aug-01 11:30N 37°14' E 023°33'2 0.9
2020-Aug-01 09:29N 37°15' E 023°35'3 0.7
2020-Aug-01 05:30N 37°14' E 023°38'11 4.1
2020-Aug-01 02:49N 37°08' E 023°49'2 6.9
2020-Aug-01 02:30N 37°08' E 023°52'19 2.2
2020-Jul-31 17:59N 37°27' E 023°49'7 2.9
2020-Jul-31 15:29N 37°33' E 023°46'12 3.6
2020-Jul-31 12:00N 37°45' E 023°39'7 3.7
2020-Jul-31 10:00N 37°52' E 023°36'5 1.4
2020-Jul-31 06:28N 37°56' E 023°38'0 0.0
2020-Jul-31 05:58N 37°56' E 023°38'0 0.0
2020-Jul-31 04:58N 37°56' E 023°38'0 0.0
2020-Jul-31 03:58N 37°56' E 023°38'0 0.0
2020-Jul-31 00:55N 37°56' E 023°38'0 0.0
2020-Jul-31 00:28N 37°56' E 023°38'0 0.0
2020-Jul-30 22:28N 37°56' E 023°38'0 0.0
2020-Jul-30 21:28N 37°56' E 023°38'0 0.0
2020-Jul-30 20:28N 37°56' E 023°38'0 0.0
2020-Jul-30 19:28N 37°56' E 023°38'0 0.0
2020-Jul-30 13:28N 37°56' E 023°38'0 0.0
2020-Jul-30 10:25N 37°56' E 023°38'0 0.0
2020-Jul-30 08:58N 37°56' E 023°38'0 0.0
2020-Jul-30 08:28N 37°56' E 023°38'0 0.0
2020-Jul-30 05:58N 37°56' E 023°38'  

Dump ship's entire track history